createdAt,value
2022-08-27T00:01:45.312Z,74.10
2022-08-27T00:04:13.505Z,74.00
2022-08-27T00:06:41.651Z,74.10
2022-08-27T00:09:09.738Z,74.00
2022-08-27T00:11:37.810Z,74.10
2022-08-27T00:14:07.364Z,74.20
2022-08-27T00:16:35.472Z,74.20
2022-08-27T00:19:14.662Z,74.10
2022-08-27T00:21:42.763Z,74.10
2022-08-27T00:24:12.413Z,74.00
2022-08-27T00:26:43.325Z,74.00
2022-08-27T00:29:13.089Z,74.10
2022-08-27T00:31:41.326Z,74.10
2022-08-27T00:34:13.012Z,74.10
2022-08-27T00:36:41.522Z,74.10
2022-08-27T00:39:09.624Z,74.10
2022-08-27T00:41:38.325Z,74.00
2022-08-27T00:44:06.548Z,74.00
2022-08-27T00:46:39.044Z,74.00
2022-08-27T00:49:09.369Z,74.00
2022-08-27T00:51:43.406Z,74.00
2022-08-27T00:54:16.070Z,74.00
2022-08-27T00:56:51.441Z,74.00
2022-08-27T00:59:20.514Z,74.10
2022-08-27T01:02:07.312Z,74.10
2022-08-27T01:04:35.777Z,74.00
2022-08-27T01:07:04.037Z,74.00
2022-08-27T01:09:32.133Z,74.00
2022-08-27T01:12:00.227Z,74.00
2022-08-27T01:14:28.472Z,74.00
2022-08-27T01:16:58.875Z,73.90
2022-08-27T01:19:30.097Z,73.90
2022-08-27T01:22:01.652Z,74.00
2022-08-27T01:24:35.768Z,74.00
2022-08-27T01:27:04.175Z,74.10
2022-08-27T01:29:34.154Z,73.90
2022-08-27T01:32:08.575Z,73.90
2022-08-27T01:34:36.665Z,73.90
2022-08-27T01:37:06.662Z,74.00
2022-08-27T01:39:36.456Z,73.90
2022-08-27T01:42:08.818Z,74.00
2022-08-27T01:44:48.059Z,73.90
2022-08-27T01:47:16.342Z,74.00
2022-08-27T01:49:44.539Z,73.90
2022-08-27T01:52:12.919Z,73.90
2022-08-27T01:54:42.396Z,73.90
2022-08-27T01:57:10.945Z,74.00
2022-08-27T01:59:40.134Z,73.90
2022-08-27T02:02:08.422Z,73.80
2022-08-27T02:04:36.550Z,73.80
2022-08-27T02:07:04.921Z,73.90
2022-08-27T02:09:33.309Z,73.80
2022-08-27T02:12:02.807Z,73.80
2022-08-27T02:14:30.893Z,73.80
2022-08-27T02:16:58.985Z,73.80
2022-08-27T02:19:27.374Z,73.70
2022-08-27T02:22:00.195Z,73.80
2022-08-27T02:24:29.130Z,73.80
2022-08-27T02:26:57.377Z,73.80
2022-08-27T02:29:26.899Z,73.70
2022-08-27T02:31:57.728Z,73.70
2022-08-27T02:34:25.921Z,73.70
2022-08-27T02:36:54.502Z,73.80
2022-08-27T02:39:22.637Z,73.70
2022-08-27T02:41:50.732Z,73.70
2022-08-27T02:44:18.818Z,73.70
2022-08-27T02:46:49.010Z,73.80
2022-08-27T02:49:21.776Z,73.60
2022-08-27T02:51:49.863Z,73.70
2022-08-27T02:54:17.954Z,73.70
2022-08-27T02:56:46.093Z,73.60
2022-08-27T02:59:15.111Z,73.70
2022-08-27T03:01:43.324Z,73.60
2022-08-27T03:04:12.871Z,73.60
2022-08-27T03:06:41.437Z,73.60
2022-08-27T03:09:10.497Z,73.60
2022-08-27T03:11:39.384Z,73.60
2022-08-27T03:14:07.535Z,73.50
2022-08-27T03:16:35.710Z,73.50
2022-08-27T03:19:02.817Z,73.50
2022-08-27T03:21:35.745Z,73.50
2022-08-27T03:24:09.157Z,73.60
2022-08-27T03:26:39.527Z,73.40
2022-08-27T03:29:07.722Z,73.50
2022-08-27T03:31:35.828Z,73.40
2022-08-27T03:34:06.824Z,73.40
2022-08-27T03:36:36.268Z,73.40
2022-08-27T03:39:04.367Z,73.50
2022-08-27T03:41:45.570Z,73.40
2022-08-27T03:44:21.662Z,73.40
2022-08-27T03:46:50.319Z,73.30
2022-08-27T03:49:20.685Z,73.40
2022-08-27T03:51:51.041Z,73.40
2022-08-27T03:54:19.676Z,73.40
2022-08-27T03:56:47.748Z,73.40
2022-08-27T03:59:16.590Z,73.40
2022-08-27T04:01:44.820Z,73.30
2022-08-27T04:04:14.110Z,73.40
2022-08-27T04:06:42.496Z,73.30
2022-08-27T04:09:11.991Z,73.30
2022-08-27T04:11:45.987Z,73.40
2022-08-27T04:14:24.927Z,73.20
2022-08-27T04:16:56.230Z,73.20
2022-08-27T04:19:27.635Z,73.30
2022-08-27T04:22:00.273Z,73.20
2022-08-27T04:24:30.358Z,73.30
2022-08-27T04:26:58.676Z,73.20
2022-08-27T04:29:26.925Z,73.20
2022-08-27T04:31:55.191Z,73.40
2022-08-27T04:34:23.291Z,73.30
2022-08-27T04:36:51.417Z,73.30
2022-08-27T04:39:20.742Z,73.30
2022-08-27T04:41:51.825Z,73.30
2022-08-27T04:44:19.973Z,73.20
2022-08-27T04:46:49.206Z,73.20
2022-08-27T04:49:17.964Z,73.20
2022-08-27T04:51:46.656Z,73.30
2022-08-27T04:54:16.399Z,73.30
2022-08-27T04:56:45.460Z,73.30
2022-08-27T04:59:14.930Z,73.20
2022-08-27T05:01:43.287Z,73.20
2022-08-27T05:04:13.003Z,73.30
2022-08-27T05:06:41.088Z,73.20
2022-08-27T05:09:09.391Z,73.30
2022-08-27T05:11:40.586Z,73.20
2022-08-27T05:14:09.624Z,73.30
2022-08-27T05:16:39.125Z,73.20
2022-08-27T05:19:09.520Z,73.10
2022-08-27T05:21:38.648Z,73.20
2022-08-27T05:24:07.806Z,73.20
2022-08-27T05:26:36.278Z,73.20
2022-08-27T05:29:10.678Z,73.20
2022-08-27T05:31:40.606Z,73.10
2022-08-27T05:34:10.215Z,73.20
2022-08-27T05:36:48.033Z,73.30
2022-08-27T05:39:17.124Z,73.10
2022-08-27T05:41:45.210Z,73.10
2022-08-27T05:44:39.609Z,73.20
2022-08-27T05:47:03.619Z,73.10
2022-08-27T05:49:31.811Z,73.00
2022-08-27T05:52:00.087Z,73.10
2022-08-27T05:54:28.220Z,73.20
2022-08-27T05:56:56.306Z,73.10
2022-08-27T05:59:41.622Z,73.00
2022-08-27T06:02:11.178Z,73.00
2022-08-27T06:04:39.294Z,73.00
2022-08-27T06:07:09.298Z,73.00
2022-08-27T06:09:37.396Z,73.00
2022-08-27T06:12:07.271Z,73.00
2022-08-27T06:14:36.412Z,73.00
2022-08-27T06:17:04.602Z,73.00
2022-08-27T06:19:34.807Z,73.00
2022-08-27T06:22:10.422Z,73.00
2022-08-27T06:24:40.429Z,72.90
2022-08-27T06:27:09.979Z,73.00
2022-08-27T06:29:38.058Z,73.10
2022-08-27T06:32:06.680Z,72.90
2022-08-27T06:34:36.236Z,72.90
2022-08-27T06:37:04.939Z,72.90
2022-08-27T06:39:33.037Z,73.00
2022-08-27T06:42:04.148Z,72.90
2022-08-27T06:44:35.574Z,72.90
2022-08-27T06:47:04.712Z,72.90
2022-08-27T06:49:33.634Z,72.90
2022-08-27T06:52:03.243Z,72.80
2022-08-27T06:54:32.320Z,72.80
2022-08-27T06:57:00.652Z,72.90
2022-08-27T06:59:29.061Z,72.90
2022-08-27T07:01:57.253Z,72.90
2022-08-27T07:07:34.414Z,72.80
2022-08-27T07:10:13.890Z,72.80
2022-08-27T07:12:45.152Z,72.80
2022-08-27T07:15:13.712Z,72.80
2022-08-27T07:17:44.692Z,72.80
2022-08-27T07:20:12.853Z,72.80
2022-08-27T07:22:42.625Z,72.80
2022-08-27T07:25:12.910Z,72.80
2022-08-27T07:27:41.027Z,72.70
2022-08-27T07:30:13.934Z,72.70
2022-08-27T07:32:42.030Z,72.70
2022-08-27T07:35:10.145Z,72.70
2022-08-27T07:37:38.409Z,72.70
2022-08-27T07:40:09.850Z,72.70
2022-08-27T07:42:57.364Z,72.80
2022-08-27T07:45:25.488Z,72.60
2022-08-27T07:47:53.659Z,72.70
2022-08-27T07:50:23.627Z,72.70
2022-08-27T07:52:51.785Z,72.70
2022-08-27T07:55:21.423Z,72.60
2022-08-27T07:57:49.535Z,72.70
2022-08-27T08:00:17.736Z,72.60
2022-08-27T08:02:47.478Z,72.70
2022-08-27T08:05:16.808Z,72.60
2022-08-27T08:07:52.043Z,72.60
2022-08-27T08:10:22.438Z,72.50
2022-08-27T08:12:50.632Z,72.70
2022-08-27T08:15:18.843Z,72.60
2022-08-27T08:17:47.072Z,72.70
2022-08-27T08:20:24.201Z,72.70
2022-08-27T08:23:04.026Z,72.80
2022-08-27T08:25:39.144Z,72.80
2022-08-27T08:28:07.293Z,72.60
2022-08-27T08:30:35.759Z,72.70
2022-08-27T08:33:03.899Z,72.80
2022-08-27T08:35:33.203Z,72.90
2022-08-27T08:38:08.951Z,72.80
2022-08-27T08:40:40.951Z,72.80
2022-08-27T08:43:11.238Z,72.70
2022-08-27T08:45:39.471Z,72.80
2022-08-27T08:48:09.710Z,72.70
2022-08-27T08:50:40.449Z,72.70
2022-08-27T08:53:11.213Z,72.70
2022-08-27T08:55:45.787Z,72.80
2022-08-27T08:58:17.660Z,72.80
2022-08-27T09:00:46.730Z,72.70
2022-08-27T09:03:15.400Z,72.80
2022-08-27T09:05:46.885Z,72.80
2022-08-27T09:08:32.333Z,72.80
2022-08-27T09:11:08.458Z,72.80
2022-08-27T09:13:39.165Z,72.80
2022-08-27T09:16:13.389Z,72.80
2022-08-27T09:18:45.853Z,72.80
2022-08-27T09:21:28.090Z,72.70
2022-08-27T09:24:07.328Z,72.80
2022-08-27T09:26:39.616Z,72.80
2022-08-27T09:29:20.151Z,72.80
2022-08-27T09:31:53.841Z,72.80
2022-08-27T09:34:24.830Z,72.80
2022-08-27T09:37:06.207Z,72.80
2022-08-27T09:39:36.429Z,72.70
2022-08-27T09:42:06.792Z,72.80
2022-08-27T09:44:45.105Z,72.70
2022-08-27T09:47:14.517Z,72.80
2022-08-27T09:49:42.592Z,72.80
2022-08-27T09:52:11.000Z,72.80
2022-08-27T09:54:42.792Z,72.80
2022-08-27T09:57:13.082Z,72.80
2022-08-27T09:59:44.722Z,72.70
2022-08-27T10:02:17.444Z,72.70
2022-08-27T10:04:51.264Z,72.70
2022-08-27T10:07:52.195Z,72.60
2022-08-27T10:10:21.991Z,72.60
2022-08-27T10:12:55.317Z,72.60
2022-08-27T10:15:23.547Z,72.60
2022-08-27T10:17:57.901Z,72.60
2022-08-27T10:20:30.481Z,72.60
2022-08-27T10:23:05.557Z,72.60
2022-08-27T10:25:38.819Z,72.60
2022-08-27T10:28:14.612Z,72.60
2022-08-27T10:30:50.630Z,72.60
2022-08-27T10:33:23.685Z,72.60
2022-08-27T10:35:56.714Z,72.60
2022-08-27T10:38:26.086Z,72.60
2022-08-27T10:40:57.224Z,72.70
2022-08-27T10:44:13.046Z,72.60
2022-08-27T10:46:51.885Z,72.60
2022-08-27T10:49:22.560Z,72.60
2022-08-27T10:51:53.321Z,72.60
2022-08-27T10:54:25.584Z,72.50
2022-08-27T10:57:14.440Z,72.60
2022-08-27T10:59:45.406Z,72.60
2022-08-27T11:02:19.446Z,72.50
2022-08-27T11:04:50.178Z,72.50
2022-08-27T11:07:20.264Z,72.50
2022-08-27T11:09:52.567Z,72.50
2022-08-27T11:12:39.893Z,72.50
2022-08-27T11:15:13.012Z,72.50
2022-08-27T11:17:44.368Z,72.50
2022-08-27T11:20:13.662Z,72.50
2022-08-27T11:22:43.349Z,72.50
2022-08-27T11:25:17.027Z,72.40
2022-08-27T11:27:45.167Z,72.40
2022-08-27T11:30:18.249Z,72.40
2022-08-27T11:32:54.140Z,72.50
2022-08-27T11:35:39.370Z,72.50
2022-08-27T11:38:33.856Z,72.50
2022-08-27T11:41:11.409Z,72.50
2022-08-27T11:43:39.830Z,72.40
2022-08-27T11:46:09.306Z,72.30
2022-08-27T11:48:40.795Z,72.40
2022-08-27T11:51:10.073Z,72.40
2022-08-27T11:53:51.841Z,72.40
2022-08-27T11:56:36.909Z,72.40
2022-08-27T11:59:11.410Z,72.40
2022-08-27T12:01:40.637Z,72.40
2022-08-27T12:04:24.863Z,72.40
2022-08-27T12:06:53.820Z,72.40
2022-08-27T12:09:22.919Z,72.30
2022-08-27T12:11:59.473Z,72.30
2022-08-27T12:14:37.583Z,72.30
2022-08-27T12:17:08.911Z,72.20
2022-08-27T12:20:05.053Z,72.30
2022-08-27T12:22:56.388Z,72.20
2022-08-27T12:25:24.631Z,72.20
2022-08-27T12:27:56.861Z,72.20
2022-08-27T12:30:30.452Z,72.20
2022-08-27T12:32:59.354Z,72.20
2022-08-27T12:35:48.589Z,72.20
2022-08-27T12:38:18.722Z,72.20
2022-08-27T12:40:50.136Z,72.10
2022-08-27T12:43:20.585Z,72.10
2022-08-27T12:45:49.561Z,72.10
2022-08-27T12:48:20.401Z,72.10
2022-08-27T12:50:53.744Z,72.00
2022-08-27T12:53:32.925Z,72.00
2022-08-27T12:56:06.165Z,72.00
2022-08-27T12:58:41.267Z,72.00
2022-08-27T13:01:27.685Z,72.00
2022-08-27T13:03:55.857Z,72.00
2022-08-27T13:06:29.309Z,71.90
2022-08-27T13:09:04.594Z,72.00
2022-08-27T13:11:33.704Z,72.10
2022-08-27T13:14:09.903Z,71.90
2022-08-27T13:16:39.945Z,71.90
2022-08-27T13:19:08.269Z,72.00
2022-08-27T13:21:37.781Z,71.80
2022-08-27T13:24:07.036Z,71.80
2022-08-27T13:26:38.650Z,71.90
2022-08-27T13:29:07.142Z,71.90
2022-08-27T13:31:35.802Z,71.80
2022-08-27T13:34:04.348Z,71.80
2022-08-27T13:36:35.434Z,71.80
2022-08-27T13:39:05.879Z,71.90
2022-08-27T13:41:35.312Z,71.80
2022-08-27T13:44:08.284Z,71.90
2022-08-27T13:46:36.446Z,71.80
2022-08-27T13:49:04.599Z,71.90
2022-08-27T13:51:34.719Z,71.80
2022-08-27T13:54:14.517Z,71.90
2022-08-27T13:56:56.229Z,71.80
2022-08-27T13:59:25.956Z,71.90
2022-08-27T14:02:04.896Z,71.80
2022-08-27T14:04:43.933Z,71.80
2022-08-27T14:07:14.249Z,71.90
2022-08-27T14:09:51.308Z,71.90
2022-08-27T14:12:32.637Z,71.80
2022-08-27T14:15:21.123Z,71.90
2022-08-27T14:17:49.188Z,71.70
2022-08-27T14:20:18.349Z,71.80
2022-08-27T14:22:47.152Z,71.90
2022-08-27T14:25:17.705Z,71.80
2022-08-27T14:27:54.250Z,71.70
2022-08-27T14:30:25.228Z,71.80
2022-08-27T14:32:58.612Z,71.70
2022-08-27T14:35:26.746Z,71.70
2022-08-27T14:37:54.825Z,71.70
2022-08-27T14:40:24.300Z,71.70
2022-08-27T14:42:53.165Z,71.80
2022-08-27T14:45:23.285Z,71.60
2022-08-27T14:47:51.470Z,71.60
2022-08-27T14:50:19.614Z,71.60
2022-08-27T14:52:47.698Z,71.70
2022-08-27T14:55:15.854Z,71.50
2022-08-27T14:57:45.418Z,71.70
2022-08-27T15:00:13.942Z,71.60
2022-08-27T15:02:48.003Z,71.50
2022-08-27T15:05:16.746Z,71.50
2022-08-27T15:07:47.156Z,71.50
2022-08-27T15:10:15.652Z,71.50
2022-08-27T15:12:45.102Z,71.40
2022-08-27T15:15:16.011Z,71.40
2022-08-27T15:17:52.133Z,71.50
2022-08-27T15:20:20.643Z,71.30
2022-08-27T15:22:49.245Z,71.40
2022-08-27T15:25:17.371Z,71.40
2022-08-27T15:27:46.827Z,71.40
2022-08-27T15:30:15.898Z,71.50
2022-08-27T15:32:45.234Z,71.50
2022-08-27T15:35:14.487Z,71.50
2022-08-27T15:37:42.755Z,71.40
2022-08-27T15:40:11.990Z,71.20
2022-08-27T15:42:40.764Z,71.30
2022-08-27T15:45:11.723Z,71.30
2022-08-27T15:47:39.869Z,71.40
2022-08-27T15:50:11.547Z,71.30
2022-08-27T15:52:41.360Z,71.40
2022-08-27T15:55:15.289Z,71.40
2022-08-27T15:57:43.398Z,71.30
2022-08-27T16:00:14.169Z,71.40
2022-08-27T16:02:42.334Z,71.20
2022-08-27T16:05:10.573Z,71.30
2022-08-27T16:07:38.653Z,71.30
2022-08-27T16:10:07.778Z,71.40
2022-08-27T16:12:35.947Z,71.30
2022-08-27T16:15:04.250Z,71.20
2022-08-27T16:17:33.748Z,71.20
2022-08-27T16:20:01.887Z,71.30
2022-08-27T16:22:30.082Z,71.20
2022-08-27T16:25:05.624Z,71.10
2022-08-27T16:27:33.906Z,71.20
2022-08-27T16:30:02.009Z,71.20
2022-08-27T16:32:30.107Z,71.00
2022-08-27T16:35:00.586Z,71.20
2022-08-27T16:37:28.686Z,71.00
2022-08-27T16:39:56.915Z,71.00
2022-08-27T16:45:22.678Z,70.90
2022-08-27T16:48:08.651Z,70.80
2022-08-27T16:50:38.192Z,70.80
2022-08-27T16:53:09.002Z,70.70
2022-08-27T16:55:37.628Z,70.70
2022-08-27T16:58:06.324Z,70.80
2022-08-27T17:00:34.389Z,70.70
2022-08-27T17:03:02.493Z,70.60
2022-08-27T17:05:34.405Z,70.60
2022-08-27T17:08:05.168Z,70.60
2022-08-27T17:10:35.118Z,70.50
2022-08-27T17:13:03.197Z,70.50
2022-08-27T17:15:31.429Z,70.50
2022-08-27T17:18:07.582Z,70.50
2022-08-27T17:20:35.982Z,70.50
2022-08-27T17:23:05.481Z,70.50
2022-08-27T17:25:33.965Z,70.40
2022-08-27T17:28:02.061Z,70.40
2022-08-27T17:30:30.198Z,70.40
2022-08-27T17:33:43.236Z,70.40
2022-08-27T17:36:22.933Z,70.50
2022-08-27T17:38:56.493Z,70.40
2022-08-27T17:41:28.698Z,70.30
2022-08-27T17:44:00.877Z,70.30
2022-08-27T17:46:29.477Z,70.30
2022-08-27T17:48:57.596Z,70.30
2022-08-27T17:51:25.958Z,70.30
2022-08-27T17:54:00.885Z,70.20
2022-08-27T17:56:32.523Z,70.20
2022-08-27T17:59:00.620Z,70.20
2022-08-27T18:01:29.551Z,70.20
2022-08-27T18:03:57.968Z,70.20
2022-08-27T18:06:26.645Z,70.20
2022-08-27T18:08:56.213Z,70.20
2022-08-27T18:11:24.359Z,70.20
2022-08-27T18:13:53.992Z,70.20
2022-08-27T18:16:22.146Z,70.10
2022-08-27T18:18:53.381Z,70.10
2022-08-27T18:21:25.473Z,70.10
2022-08-27T18:23:54.579Z,70.10
2022-08-27T18:26:25.244Z,70.10
2022-08-27T18:28:53.814Z,70.10
2022-08-27T18:31:27.451Z,70.00
2022-08-27T18:33:55.571Z,70.00
2022-08-27T18:36:23.742Z,70.00
2022-08-27T18:38:51.849Z,70.00
2022-08-27T18:41:19.927Z,70.00
2022-08-27T18:43:49.614Z,70.00
2022-08-27T18:46:17.865Z,70.00
2022-08-27T18:48:51.843Z,70.00
2022-08-27T18:51:20.010Z,70.00
2022-08-27T18:53:48.695Z,70.00
2022-08-27T18:56:18.790Z,69.90
2022-08-27T18:58:47.037Z,69.90
2022-08-27T19:01:19.149Z,69.90
2022-08-27T19:03:48.781Z,69.90
2022-08-27T19:06:18.505Z,69.90
2022-08-27T19:08:46.610Z,69.90
2022-08-27T19:11:14.693Z,69.90
2022-08-27T19:13:43.164Z,69.80
2022-08-27T19:16:14.424Z,69.90
2022-08-27T19:18:43.999Z,69.90
2022-08-27T19:21:12.087Z,69.80
2022-08-27T19:23:40.309Z,69.80
2022-08-27T19:26:08.524Z,69.80
2022-08-27T19:28:38.636Z,69.80
2022-08-27T19:31:07.246Z,69.70
2022-08-27T19:33:35.381Z,69.80
2022-08-27T19:36:05.037Z,69.70
2022-08-27T19:38:33.240Z,69.70
2022-08-27T19:41:01.868Z,69.80
2022-08-27T19:43:30.073Z,69.70
2022-08-27T19:45:58.565Z,69.70
2022-08-27T19:48:26.699Z,69.70
2022-08-27T19:50:55.946Z,69.70
2022-08-27T19:53:25.428Z,69.70
2022-08-27T19:55:53.546Z,69.60
2022-08-27T19:58:21.722Z,69.60
2022-08-27T20:00:49.897Z,69.60
2022-08-27T20:03:18.036Z,69.60
2022-08-27T20:05:46.549Z,69.60
2022-08-27T20:08:14.644Z,69.50
2022-08-27T20:10:44.577Z,69.50
2022-08-27T20:13:12.728Z,69.40
2022-08-27T20:15:41.944Z,69.40
2022-08-27T20:18:10.887Z,69.40
2022-08-27T20:20:39.109Z,69.40
2022-08-27T20:23:16.276Z,69.40
2022-08-27T20:25:45.741Z,69.40
2022-08-27T20:28:37.925Z,69.40
2022-08-27T20:31:02.153Z,69.30
2022-08-27T20:33:30.247Z,69.30
2022-08-27T20:35:58.546Z,69.30
2022-08-27T20:38:26.653Z,69.30
2022-08-27T20:40:56.068Z,69.30
2022-08-27T20:43:24.159Z,69.30
2022-08-27T20:46:06.175Z,69.30
2022-08-27T20:48:38.299Z,69.30
2022-08-27T20:51:06.609Z,69.30
2022-08-27T20:53:34.665Z,69.20
2022-08-27T20:56:04.489Z,69.20
2022-08-27T20:58:49.771Z,69.20
2022-08-27T21:01:18.152Z,69.20
2022-08-27T21:03:46.325Z,69.20
2022-08-27T21:06:14.408Z,69.20
2022-08-27T21:08:42.548Z,69.10
2022-08-27T21:11:13.124Z,69.10
2022-08-27T21:13:55.308Z,69.00
2022-08-27T21:16:24.230Z,69.00
2022-08-27T21:18:53.731Z,69.10
2022-08-27T21:21:21.873Z,69.00
2022-08-27T21:23:49.988Z,68.80
2022-08-27T21:26:20.184Z,68.90
2022-08-27T21:28:48.277Z,68.90
2022-08-27T21:31:23.677Z,68.80
2022-08-27T21:33:51.789Z,68.80
2022-08-27T21:36:19.911Z,68.80
2022-08-27T21:38:48.254Z,68.80
2022-08-27T21:41:16.389Z,68.70
2022-08-27T21:43:45.878Z,68.70
2022-08-27T21:46:14.009Z,68.60
2022-08-27T21:48:42.136Z,68.60
2022-08-27T21:51:10.476Z,68.60
2022-08-27T21:53:54.845Z,68.60
2022-08-27T21:56:22.947Z,68.60
2022-08-27T21:58:52.418Z,68.40
2022-08-27T22:01:20.600Z,68.40
2022-08-27T22:03:50.897Z,68.40
2022-08-27T22:06:19.093Z,68.40
2022-08-27T22:08:47.277Z,68.30
2022-08-27T22:11:17.070Z,68.30
2022-08-27T22:13:47.678Z,68.30
2022-08-27T22:16:17.242Z,68.30
2022-08-27T22:18:45.371Z,68.20
2022-08-27T22:21:13.784Z,68.20
2022-08-27T22:23:44.750Z,68.10
2022-08-27T22:26:13.314Z,68.20
2022-08-27T22:28:44.440Z,68.10
2022-08-27T22:31:12.615Z,68.00
2022-08-27T22:33:42.189Z,67.90
2022-08-27T22:36:10.292Z,68.00
2022-08-27T22:38:38.399Z,68.00
2022-08-27T22:41:06.941Z,68.00
2022-08-27T22:43:35.949Z,68.00
2022-08-27T22:46:10.160Z,67.90
2022-08-27T22:48:38.282Z,67.90
2022-08-27T22:51:07.868Z,67.90
2022-08-27T22:53:40.086Z,67.90
2022-08-27T22:56:08.189Z,67.90
2022-08-27T22:58:36.306Z,67.90
2022-08-27T23:01:04.396Z,67.90
2022-08-27T23:03:32.512Z,67.80
2022-08-27T23:06:00.691Z,67.80
2022-08-27T23:08:31.191Z,67.80
2022-08-27T23:10:59.276Z,67.80
2022-08-27T23:13:27.394Z,67.80
2022-08-27T23:15:56.790Z,67.70
2022-08-27T23:18:27.083Z,67.70
2022-08-27T23:20:55.652Z,67.70
2022-08-27T23:23:26.699Z,67.70
2022-08-27T23:26:17.826Z,67.60
2022-08-27T23:28:45.962Z,67.70
2022-08-27T23:31:14.307Z,67.60
2022-08-27T23:33:42.455Z,67.70
2022-08-27T23:36:10.569Z,67.60
2022-08-27T23:38:38.652Z,67.60
2022-08-27T23:41:08.409Z,67.50
2022-08-27T23:43:36.530Z,67.60
2022-08-27T23:46:04.792Z,67.50
2022-08-27T23:48:32.964Z,67.40
2022-08-27T23:51:07.181Z,67.50
2022-08-27T23:53:35.295Z,67.40
2022-08-27T23:56:03.594Z,67.50
2022-08-27T23:58:33.477Z,67.40
